Terminal Aerodrome Forecast
Issued by NWS Mobile, AL

Home | Current Version | Previous Version | Text Only | Print | Product List | Glossary On
Versions: 1 2 3 4 5 6 7 8 9 10 11 12 13 14 15 16 17 18 19 20 21 22 23 24 25 26
000
FTUS44 KMOB 141100
TAFMOB
TAF
KMOB 141137Z 1412/1512 00000KT P6SM VCSH SCT045
     FM141500 20008KT P6SM VCTS BKN040CB
      TEMPO 1416/1418 4SM TSRA BKN020CB
     FM142100 19010KT P6SM SCT040=

USA.gov is the U.S. government's official web portal to all federal, state and local government web resources and services.